Time;durP1;ratioP1;P1;durP2;ratioP2;P2;SDS_P1;SDS_P2;PMS_P1;PMS_P2;Temp;Humidity;BMP_temperature;BMP_pressure;BME280_temperature;BME280_humidity;BME280_pressure;Samples;Min_cycle;Max_cycle;Signal;HPM_P1;HPM_P2
2022/10/19 00:01:10;;;;;;;;;;;;;;;;;;5094256;28;2246;-53
2022/10/19 00:03:38;;;;;;;;;;;;;;;;;;5093480;28;1878;-53
2022/10/19 00:06:16;;;;;;;;;;;;;;;;;;5093708;28;1946;-48
2022/10/19 00:08:43;;;;;;;;;;;;;;;;;;5093544;28;1495;-51
2022/10/19 00:11:10;;;;;;;;;;;;;;;;;;5094245;28;2080;-49
2022/10/19 00:13:38;;;;;;;;;;;;;;;;;;5093093;28;1973;-52
2022/10/19 00:16:09;;;;;;;;;;;;;;;;;;5092693;28;2017;-42
2022/10/19 00:18:37;;;;;;;;;;;;;;;;;;5093457;28;1947;-46
2022/10/19 00:21:07;;;;;;;;;;;;;;;;;;5093608;28;1966;-52
2022/10/19 00:23:35;;;;;;;;;;;;;;;;;;5093587;28;1757;-51
2022/10/19 00:26:02;;;;;;;;;;;;;;;;;;5093418;28;1814;-48
2022/10/19 00:28:29;;;;;;;;;;;;;;;;;;5093351;28;2266;-51
2022/10/19 00:31:00;;;;;;;;;;;;;;;;;;5093182;28;1514;-53
2022/10/19 00:33:27;;;;;;;;;;;;;;;;;;5093295;28;2067;-51
2022/10/19 00:35:54;;;;;;;;;;;;;;;;;;5093028;28;1756;-48
2022/10/19 00:38:22;;;;;;;;;;;;;;;;;;5093021;28;1811;-51
2022/10/19 00:40:49;;;;;;;;;;;;;;;;;;5092804;28;2142;-45
2022/10/19 00:43:17;;;;;;;;;;;;;;;;;;5092902;28;1982;-52
2022/10/19 00:45:44;;;;;;;;;;;;;;;;;;5092957;28;1675;-48
2022/10/19 00:48:13;;;;;;;;;;;;;;;;;;5093315;28;2006;-47
2022/10/19 00:50:41;;;;;;;;;;;;;;;;;;5092672;28;2132;-49
2022/10/19 00:53:08;;;;;;;;;;;;;;;;;;5092630;28;1984;-48
2022/10/19 00:55:36;;;;;;;;;;;;;;;;;;5092805;28;1933;-48
2022/10/19 00:58:03;;;;;;;;;;;;;;;;;;5092905;28;1879;-50
2022/10/19 01:00:32;;;;;;;;;;;;;;;;;;5092464;28;2283;-46
2022/10/19 01:03:02;;;;;;;;;;;;;;;;;;5092147;28;1816;-48
2022/10/19 01:05:30;;;;;;;;;;;;;;;;;;5092653;28;1898;-49
2022/10/19 01:07:58;;;;;;;;;;;;;;;;;;5091240;28;1715;-52
2022/10/19 01:10:41;;;;;;;;;;;;;;;;;;5092728;28;2156;-51
2022/10/19 01:13:27;;;;;;;;;;;;;;;;;;5092235;28;1908;-44
2022/10/19 01:16:02;;;;;;;;;;;;;;;;;;5092308;28;1852;-44
2022/10/19 01:18:43;;;;;;;;;;;;;;;;;;5092317;28;2137;-49
2022/10/19 01:21:22;;;;;;;;;;;;;;;;;;5092377;28;1909;-52
2022/10/19 01:23:52;;;;;;;;;;;;;;;;;;5091991;28;1963;-48
2022/10/19 01:26:19;;;;;;;;;;;;;;;;;;5091937;28;1609;-44
2022/10/19 01:28:55;;;;;;;;;;;;;;;;;;5092206;28;2092;-49
2022/10/19 01:31:26;;;;;;;;;;;;;;;;;;5092324;28;1789;-46
2022/10/19 01:34:09;;;;;;;;;;;;;;;;;;5092214;28;2190;-50
2022/10/19 01:36:48;;;;;;;;;;;;;;;;;;5092319;28;1709;-49
2022/10/19 01:39:28;;;;;;;;;;;;;;;;;;5091813;28;2116;-49
2022/10/19 01:41:55;;;;;;;;;;;;;;;;;;5091671;28;1629;-48
2022/10/19 01:44:26;;;;;;;;;;;;;;;;;;5091939;28;1981;-51
2022/10/19 01:46:55;;;;;;;;;;;;;;;;;;5091906;28;1837;-52
2022/10/19 01:49:33;;;;;;;;;;;;;;;;;;5091480;28;1719;-45
2022/10/19 01:52:02;;;;;;;;;;;;;;;;;;5094135;28;1785;-45
2022/10/19 01:54:33;;;;;;;;;;;;;;;;;;5111962;28;2220;-47
2022/10/19 01:57:03;;;;;;;;;;;;;;;;;;5111997;28;2185;-49
2022/10/19 01:59:31;;;;;;;;;;;;;;;;;;5111937;28;1481;-46
2022/10/19 02:02:01;;;;;;;;;;;;;;;;;;5111358;28;1889;-49
2022/10/19 02:04:29;;;;;;;;;;;;;;;;;;5111828;28;1805;-48
2022/10/19 02:06:56;;;;;;;;;;;;;;;;;;5094438;28;1980;-51
2022/10/19 02:09:23;;;;;;;;;;;;;;;;;;5091355;28;1773;-50
2022/10/19 02:11:52;;;;;;;;;;;;;;;;;;5091538;28;1917;-43
2022/10/19 02:14:24;;;;;;;;;;;;;;;;;;5091625;28;2101;-47
2022/10/19 02:16:53;;;;;;;;;;;;;;;;;;5091454;28;1738;-41
2022/10/19 02:19:21;;;;;;;;;;;;;;;;;;5091161;28;1806;-46
2022/10/19 02:21:53;;;;;;;;;;;;;;;;;;5091340;28;1849;-47
2022/10/19 02:24:20;;;;;;;;;;;;;;;;;;5090037;28;2360;-44
2022/10/19 02:26:47;;;;;;;;;;;;;;;;;;5091157;28;1799;-47
2022/10/19 02:29:15;;;;;;;;;;;;;;;;;;5091258;28;1857;-50
2022/10/19 02:31:42;;;;;;;;;;;;;;;;;;5091325;28;2106;-49
2022/10/19 02:34:09;;;;;;;;;;;;;;;;;;5100618;28;2146;-44
2022/10/19 02:36:37;;;;;;;;;;;;;;;;;;5090962;28;2011;-46
2022/10/19 02:39:05;;;;;;;;;;;;;;;;;;5092589;28;2086;-49
2022/10/19 02:41:38;;;;;;;;;;;;;;;;;;5095181;28;1830;-47
2022/10/19 02:44:18;;;;;;;;;;;;;;;;;;5095281;28;1898;-45
2022/10/19 02:46:49;;;;;;;;;;;;;;;;;;5095527;28;1752;-45
2022/10/19 02:49:17;;;;;;;;;;;;;;;;;;5095236;28;2025;-51
2022/10/19 02:52:03;;;;;;;;;;;;;;;;;;5095230;28;1652;-47
2022/10/19 02:54:31;;;;;;;;;;;;;;;;;;5095294;28;2290;-44
2022/10/19 02:56:58;;;;;;;;;;;;;;;;;;5094937;28;1519;-49
2022/10/19 02:59:26;;;;;;;;;;;;;;;;;;5094926;28;2078;-47
2022/10/19 03:01:53;;;;;;;;;;;;;;;;;;5100131;28;2178;-42
2022/10/19 03:04:20;;;;;;;;;;;;;;;;;;5115150;28;2010;-47
2022/10/19 03:06:47;;;;;;;;;;;;;;;;;;5115287;28;1975;-40
2022/10/19 03:09:14;;;;;;;;;;;;;;;;;;5114324;28;1956;-42
2022/10/19 03:11:41;;;;;;;;;;;;;;;;;;5115542;28;1690;-45
2022/10/19 03:14:10;;;;;;;;;;;;;;;;;;5114904;28;1926;-48
2022/10/19 03:16:37;;;;;;;;;;;;;;;;;;5115157;28;1967;-46
2022/10/19 03:19:05;;;;;;;;;;;;;;;;;;5114850;28;1710;-51
2022/10/19 03:21:32;;;;;;;;;;;;;;;;;;5115032;28;1906;-44
2022/10/19 03:23:59;;;;;;;;;;;;;;;;;;5114683;28;2138;-48
2022/10/19 03:26:26;;;;;;;;;;;;;;;;;;5103699;28;2287;-47
2022/10/19 03:28:53;;;;;;;;;;;;;;;;;;5094441;28;1863;-51
2022/10/19 03:31:20;;;;;;;;;;;;;;;;;;5094380;28;2129;-48
2022/10/19 03:33:48;;;;;;;;;;;;;;;;;;5105248;28;2152;-42
2022/10/19 03:36:18;;;;;;;;;;;;;;;;;;5115029;28;1268;-47
2022/10/19 03:38:46;;;;;;;;;;;;;;;;;;5114884;28;1879;-49
2022/10/19 03:41:13;;;;;;;;;;;;;;;;;;5114874;28;2223;-49
2022/10/19 03:43:40;;;;;;;;;;;;;;;;;;5114439;28;1969;-50
2022/10/19 03:46:07;;;;;;;;;;;;;;;;;;5114145;28;1370;-51
2022/10/19 03:48:34;;;;;;;;;;;;;;;;;;5114581;28;1744;-45
2022/10/19 03:51:03;;;;;;;;;;;;;;;;;;5112182;28;1899;-45
2022/10/19 03:53:31;;;;;;;;;;;;;;;;;;5114515;28;1714;-47
2022/10/19 03:56:10;;;;;;;;;;;;;;;;;;5114116;28;1963;-49
2022/10/19 03:58:38;;;;;;;;;;;;;;;;;;5114400;28;1748;-46
2022/10/19 04:01:07;;;;;;;;;;;;;;;;;;5114277;28;2111;-48
2022/10/19 04:03:34;;;;;;;;;;;;;;;;;;5114211;28;1579;-46
2022/10/19 04:06:08;;;;;;;;;;;;;;;;;;5113976;28;2345;-45
2022/10/19 04:08:35;;;;;;;;;;;;;;;;;;5114096;28;2073;-51
2022/10/19 04:11:04;;;;;;;;;;;;;;;;;;5113915;28;2126;-50
2022/10/19 04:13:31;;;;;;;;;;;;;;;;;;5113849;28;1670;-48
2022/10/19 04:15:58;;;;;;;;;;;;;;;;;;5114124;28;1911;-47
2022/10/19 04:18:26;;;;;;;;;;;;;;;;;;5114053;28;1748;-49
2022/10/19 04:20:55;;;;;;;;;;;;;;;;;;5113807;28;2091;-48
2022/10/19 04:23:22;;;;;;;;;;;;;;;;;;5113823;28;1944;-44
2022/10/19 04:25:49;;;;;;;;;;;;;;;;;;5114129;28;2031;-50
2022/10/19 04:28:16;;;;;;;;;;;;;;;;;;5114070;28;1573;-46
2022/10/19 04:30:44;;;;;;;;;;;;;;;;;;5113712;28;1565;-50
2022/10/19 04:33:11;;;;;;;;;;;;;;;;;;5107777;28;2311;-48
2022/10/19 04:35:38;;;;;;;;;;;;;;;;;;5093153;28;2020;-48
2022/10/19 04:38:06;;;;;;;;;;;;;;;;;;5093146;28;1602;-49
2022/10/19 04:40:35;;;;;;;;;;;;;;;;;;5093156;28;2245;-48
2022/10/19 04:43:03;;;;;;;;;;;;;;;;;;5092757;28;2103;-47
2022/10/19 04:45:30;;;;;;;;;;;;;;;;;;5092871;28;1712;-50
2022/10/19 04:47:58;;;;;;;;;;;;;;;;;;5093163;28;1771;-49
2022/10/19 04:50:26;;;;;;;;;;;;;;;;;;5092894;28;1265;-42
2022/10/19 04:52:54;;;;;;;;;;;;;;;;;;5092448;28;1814;-48
2022/10/19 04:55:22;;;;;;;;;;;;;;;;;;5092929;28;1906;-49
2022/10/19 04:57:49;;;;;;;;;;;;;;;;;;5092927;28;1675;-46
2022/10/19 05:00:16;;;;;;;;;;;;;;;;;;5092791;28;2079;-47
2022/10/19 05:02:44;;;;;;;;;;;;;;;;;;5091950;28;1970;-48
2022/10/19 05:05:12;;;;;;;;;;;;;;;;;;5092595;28;1700;-48
2022/10/19 05:07:40;;;;;;;;;;;;;;;;;;5093023;28;1458;-45
2022/10/19 05:10:07;;;;;;;;;;;;;;;;;;5092513;28;1882;-48
2022/10/19 05:12:35;;;;;;;;;;;;;;;;;;5092536;28;1864;-49
2022/10/19 05:15:02;;;;;;;;;;;;;;;;;;5092544;28;2023;-51
2022/10/19 05:17:30;;;;;;;;;;;;;;;;;;5092478;28;1843;-52
2022/10/19 05:19:58;;;;;;;;;;;;;;;;;;5090992;28;1966;-48
2022/10/19 05:22:25;;;;;;;;;;;;;;;;;;5092450;28;1436;-47
2022/10/19 05:24:52;;;;;;;;;;;;;;;;;;5092436;28;2029;-42
2022/10/19 05:27:23;;;;;;;;;;;;;;;;;;5092270;28;1897;-43
2022/10/19 05:29:50;;;;;;;;;;;;;;;;;;5091949;28;1751;-47
2022/10/19 05:32:17;;;;;;;;;;;;;;;;;;5091794;28;1943;-49
2022/10/19 05:34:44;;;;;;;;;;;;;;;;;;5106206;28;2426;-47
2022/10/19 05:37:11;;;;;;;;;;;;;;;;;;5092020;28;1940;-52
2022/10/19 05:39:38;;;;;;;;;;;;;;;;;;5092469;28;2177;-43
2022/10/19 05:42:05;;;;;;;;;;;;;;;;;;5092073;28;1718;-51
2022/10/19 05:44:32;;;;;;;;;;;;;;;;;;5090081;28;1554;-49
2022/10/19 05:46:59;;;;;;;;;;;;;;;;;;5091357;28;1983;-46
2022/10/19 05:49:27;;;;;;;;;;;;;;;;;;5091071;28;1862;-47
2022/10/19 05:51:54;;;;;;;;;;;;;;;;;;5092286;28;2166;-49
2022/10/19 05:54:21;;;;;;;;;;;;;;;;;;5091790;28;1905;-48
2022/10/19 05:56:50;;;;;;;;;;;;;;;;;;5091903;28;1660;-48
2022/10/19 05:59:18;;;;;;;;;;;;;;;;;;5091565;28;2131;-45
2022/10/19 06:01:47;;;;;;;;;;;;;;;;;;5091348;28;2045;-44
2022/10/19 06:04:14;;;;;;;;;;;;;;;;;;5091679;28;1499;-45
2022/10/19 06:06:42;;;;;;;;;;;;;;;;;;5091650;28;2082;-42
2022/10/19 06:09:10;;;;;;;;;;;;;;;;;;5091648;28;1512;-49
2022/10/19 06:11:38;;;;;;;;;;;;;;;;;;5091324;28;1819;-49
2022/10/19 06:14:07;;;;;;;;;;;;;;;;;;5090695;28;1674;-49
2022/10/19 06:16:36;;;;;;;;;;;;;;;;;;5091554;28;1886;-48
2022/10/19 06:19:04;;;;;;;;;;;;;;;;;;5091411;28;2114;-46
2022/10/19 06:21:31;;;;;;;;;;;;;;;;;;5091607;28;1967;-53
2022/10/19 06:24:03;;;;;;;;;;;;;;;;;;5091267;28;2457;-45
2022/10/19 06:26:31;;;;;;;;;;;;;;;;;;5091243;28;1854;-48
2022/10/19 06:28:59;;;;;;;;;;;;;;;;;;5091331;28;1971;-41
2022/10/19 06:31:30;;;;;;;;;;;;;;;;;;5091305;28;2186;-49
2022/10/19 06:33:57;;;;;;;;;;;;;;;;;;5091667;28;2234;-48
2022/10/19 06:36:26;;;;;;;;;;;;;;;;;;5091417;28;2146;-45
2022/10/19 06:38:53;;;;;;;;;;;;;;;;;;5091248;28;2355;-50
2022/10/19 06:41:20;;;;;;;;;;;;;;;;;;5091145;28;1539;-49
2022/10/19 06:43:48;;;;;;;;;;;;;;;;;;5091187;28;1870;-47
2022/10/19 06:46:19;;;;;;;;;;;;;;;;;;5090182;28;1823;-49
2022/10/19 06:48:56;;;;;;;;;;;;;;;;;;5091215;28;2104;-52
2022/10/19 06:51:24;;;;;;;;;;;;;;;;;;5090963;28;1748;-42
2022/10/19 06:53:52;;;;;;;;;;;;;;;;;;5091100;28;1979;-44
2022/10/19 06:56:23;;;;;;;;;;;;;;;;;;5091200;28;2133;-48
2022/10/19 06:58:50;;;;;;;;;;;;;;;;;;5091049;28;2267;-51
2022/10/19 07:01:17;;;;;;;;;;;;;;;;;;5091034;28;1565;-47
2022/10/19 07:03:45;;;;;;;;;;;;;;;;;;5090952;28;1792;-49
2022/10/19 07:06:12;;;;;;;;;;;;;;;;;;5090761;28;1980;-48
2022/10/19 07:08:41;;;;;;;;;;;;;;;;;;5091201;28;1950;-49
2022/10/19 07:11:09;;;;;;;;;;;;;;;;;;5090788;28;1869;-48
2022/10/19 07:13:37;;;;;;;;;;;;;;;;;;5091173;28;2187;-46
2022/10/19 07:16:07;;;;;;;;;;;;;;;;;;5090842;28;1972;-44
2022/10/19 07:18:35;;;;;;;;;;;;;;;;;;5090675;28;2244;-52
2022/10/19 07:21:03;;;;;;;;;;;;;;;;;;5091014;28;1768;-47
2022/10/19 07:23:30;;;;;;;;;;;;;;;;;;5090569;28;2200;-48
2022/10/19 07:26:02;;;;;;;;;;;;;;;;;;5093612;28;1745;-52
2022/10/19 07:28:33;;;;;;;;;;;;;;;;;;5094609;28;1828;-41
2022/10/19 07:31:03;;;;;;;;;;;;;;;;;;5094630;28;1961;-50
2022/10/19 07:33:33;;;;;;;;;;;;;;;;;;5094700;28;2006;-49
2022/10/19 07:36:02;;;;;;;;;;;;;;;;;;5094428;28;2036;-51
2022/10/19 07:38:30;;;;;;;;;;;;;;;;;;5094419;28;2000;-50
2022/10/19 07:41:01;;;;;;;;;;;;;;;;;;5094483;28;1496;-46
2022/10/19 07:43:28;;;;;;;;;;;;;;;;;;5094115;28;2051;-50
2022/10/19 07:46:02;;;;;;;;;;;;;;;;;;5094375;28;1694;-50
2022/10/19 07:48:29;;;;;;;;;;;;;;;;;;5094371;28;2281;-48
2022/10/19 07:50:56;;;;;;;;;;;;;;;;;;5094071;28;1897;-46
2022/10/19 07:53:24;;;;;;;;;;;;;;;;;;5094015;28;2633;-48
2022/10/19 07:55:51;;;;;;;;;;;;;;;;;;5093659;28;1939;-48
2022/10/19 07:58:18;;;;;;;;;;;;;;;;;;5093574;28;1846;-47
2022/10/19 08:00:45;;;;;;;;;;;;;;;;;;5094111;28;1794;-48
2022/10/19 08:03:12;;;;;;;;;;;;;;;;;;5091831;28;1408;-49
2022/10/19 08:06:00;;;;;;;;;;;;;;;;;;5094050;28;2103;-41
2022/10/19 08:08:27;;;;;;;;;;;;;;;;;;5093466;28;1498;-46
2022/10/19 08:10:55;;;;;;;;;;;;;;;;;;5093649;28;2258;-46
2022/10/19 08:13:22;;;;;;;;;;;;;;;;;;5093875;28;1561;-51
2022/10/19 08:15:49;;;;;;;;;;;;;;;;;;5093502;28;2315;-48
2022/10/19 08:18:17;;;;;;;;;;;;;;;;;;5093685;28;2081;-49
2022/10/19 08:20:44;;;;;;;;;;;;;;;;;;5093472;28;1721;-48
2022/10/19 08:23:11;;;;;;;;;;;;;;;;;;5093398;28;2216;-51
2022/10/19 08:25:38;;;;;;;;;;;;;;;;;;5093553;28;1919;-53
2022/10/19 08:28:06;;;;;;;;;;;;;;;;;;5093521;28;1994;-43
2022/10/19 08:30:34;;;;;;;;;;;;;;;;;;5093698;28;1480;-53
2022/10/19 08:33:01;;;;;;;;;;;;;;;;;;5093603;28;1694;-48
2022/10/19 08:35:29;;;;;;;;;;;;;;;;;;5093236;28;2192;-44
2022/10/19 08:37:57;;;;;;;;;;;;;;;;;;5092325;28;1670;-49
2022/10/19 08:40:26;;;;;;;;;;;;;;;;;;5093130;28;2158;-49
2022/10/19 08:43:00;;;;;;;;;;;;;;;;;;5093129;28;1810;-52
2022/10/19 08:45:46;;;;;;;;;;;;;;;;;;5091912;28;1863;-53
2022/10/19 08:48:18;;;;;;;;;;;;;;;;;;5092868;28;2074;-51
2022/10/19 08:50:46;;;;;;;;;;;;;;;;;;5092763;28;2009;-48
2022/10/19 08:53:21;;;;;;;;;;;;;;;;;;5093176;28;1973;-51
2022/10/19 08:56:08;;;;;;;;;;;;;;;;;;5092908;28;1906;-49
2022/10/19 08:58:56;;;;;;;;;;;;;;;;;;5091398;28;1279;-41
2022/10/19 09:01:23;;;;;;;;;;;;;;;;;;5092756;28;1989;-50
2022/10/19 09:04:20;;;;;;;;;;;;;;;;;;5092614;28;1821;-48
2022/10/19 09:06:51;;;;;;;;;;;;;;;;;;5087991;28;1329;-46
2022/10/19 09:09:19;;;;;;;;;;;;;;;;;;5092646;28;1844;-50
2022/10/19 09:11:47;;;;;;;;;;;;;;;;;;5092670;28;1629;-46
2022/10/19 09:14:22;;;;;;;;;;;;;;;;;;5092557;28;2139;-53
2022/10/19 09:16:49;;;;;;;;;;;;;;;;;;5092434;28;1967;-50
2022/10/19 09:19:28;;;;;;;;;;;;;;;;;;5092579;28;1974;-45
2022/10/19 09:22:03;;;;;;;;;;;;;;;;;;5092555;28;1694;-52
2022/10/19 09:24:45;;;;;;;;;;;;;;;;;;5092214;28;1956;-47
2022/10/19 09:27:19;;;;;;;;;;;;;;;;;;5092430;28;1781;-49
2022/10/19 09:29:50;;;;;;;;;;;;;;;;;;5092143;28;1795;-48
2022/10/19 09:32:18;;;;;;;;;;;;;;;;;;5092043;28;2088;-49
2022/10/19 09:34:57;;;;;;;;;;;;;;;;;;5110744;28;1914;-47
2022/10/19 09:37:24;;;;;;;;;;;;;;;;;;5112418;28;2217;-50
2022/10/19 09:39:53;;;;;;;;;;;;;;;;;;5112243;28;1955;-47
2022/10/19 09:42:31;;;;;;;;;;;;;;;;;;5112634;28;2015;-48
2022/10/19 09:45:01;;;;;;;;;;;;;;;;;;5112270;28;1799;-47
2022/10/19 09:47:28;;;;;;;;;;;;;;;;;;5112643;28;1758;-52
2022/10/19 09:50:24;;;;;;;;;;;;;;;;;;5112644;28;2134;-44
2022/10/19 09:52:53;;;;;;;;;;;;;;;;;;5107243;28;1334;-49
2022/10/19 09:55:27;;;;;;;;;;;;;;;;;;5112148;28;1923;-49
2022/10/19 09:57:58;;;;;;;;;;;;;;;;;;5112033;28;2095;-54
2022/10/19 10:00:31;;;;;;;;;;;;;;;;;;5111769;28;1668;-46
2022/10/19 10:02:59;;;;;;;;;;;;;;;;;;5112117;28;1382;-48
2022/10/19 10:05:34;;;;;;;;;;;;;;;;;;5111891;28;2056;-48
2022/10/19 10:08:02;;;;;;;;;;;;;;;;;;5112206;28;1643;-41
2022/10/19 10:10:38;;;;;;;;;;;;;;;;;;5111902;28;2027;-53
2022/10/19 10:13:05;;;;;;;;;;;;;;;;;;5111915;28;1497;-50
2022/10/19 10:15:49;;;;;;;;;;;;;;;;;;5111461;28;1988;-51
2022/10/19 10:18:17;;;;;;;;;;;;;;;;;;5111983;28;1814;-45
2022/10/19 10:20:56;;;;;;;;;;;;;;;;;;5111691;28;1870;-52
2022/10/19 10:23:25;;;;;;;;;;;;;;;;;;5111745;28;1674;-49
2022/10/19 10:25:56;;;;;;;;;;;;;;;;;;5111786;28;2057;-47
2022/10/19 10:28:24;;;;;;;;;;;;;;;;;;5111557;28;1733;-51
2022/10/19 10:30:54;;;;;;;;;;;;;;;;;;5111816;28;1987;-41
2022/10/19 10:33:25;;;;;;;;;;;;;;;;;;5104308;28;1881;-49
2022/10/19 10:36:10;;;;;;;;;;;;;;;;;;5091087;28;1950;-51
2022/10/19 10:38:48;;;;;;;;;;;;;;;;;;5091132;28;1844;-49
2022/10/19 10:41:19;;;;;;;;;;;;;;;;;;5091506;28;2081;-52
2022/10/19 10:44:09;;;;;;;;;;;;;;;;;;5091444;28;1653;-48
2022/10/19 10:46:42;;;;;;;;;;;;;;;;;;5088204;28;1947;-44
2022/10/19 10:49:16;;;;;;;;;;;;;;;;;;5091240;28;1832;-50
2022/10/19 10:51:46;;;;;;;;;;;;;;;;;;5090984;28;1965;-51
2022/10/19 10:54:23;;;;;;;;;;;;;;;;;;5091294;28;2068;-52
2022/10/19 10:57:14;;;;;;;;;;;;;;;;;;5091122;28;2016;-52
2022/10/19 10:59:56;;;;;;;;;;;;;;;;;;5091853;28;1933;-48
2022/10/19 11:02:46;;;;;;;;;;;;;;;;;;5095147;28;1349;-44
2022/10/19 11:05:52;;;;;;;;;;;;;;;;;;5084771;28;1385;-47
2022/10/19 11:08:36;;;;;;;;;;;;;;;;;;5072484;28;1893;-48
2022/10/19 11:11:12;;;;;;;;;;;;;;;;;;5072479;28;2089;-49
2022/10/19 11:13:48;;;;;;;;;;;;;;;;;;5072558;28;1652;-51
2022/10/19 11:16:20;;;;;;;;;;;;;;;;;;5072237;28;2163;-46
2022/10/19 11:18:50;;;;;;;;;;;;;;;;;;5074553;28;2320;-46
2022/10/19 11:21:30;;;;;;;;;;;;;;;;;;5094710;28;1743;-47
2022/10/19 11:24:01;;;;;;;;;;;;;;;;;;5094593;28;1528;-52
2022/10/19 11:26:38;;;;;;;;;;;;;;;;;;5093161;28;2437;-49
2022/10/19 11:29:11;;;;;;;;;;;;;;;;;;5094846;28;2120;-47
2022/10/19 11:31:44;;;;;;;;;;;;;;;;;;5094551;28;1998;-45
2022/10/19 11:34:30;;;;;;;;;;;;;;;;;;5095029;28;1946;-50
2022/10/19 11:37:15;;;;;;;;;;;;;;;;;;5094105;28;1981;-44
2022/10/19 11:39:51;;;;;;;;;;;;;;;;;;5094426;28;1929;-47
2022/10/19 11:42:37;;;;;;;;;;;;;;;;;;5094416;28;1981;-41
2022/10/19 11:45:23;;;;;;;;;;;;;;;;;;5094003;28;1812;-44
2022/10/19 11:48:00;;;;;;;;;;;;;;;;;;5094063;28;2285;-49
2022/10/19 11:50:46;;;;;;;;;;;;;;;;;;5094124;28;1839;-45
2022/10/19 11:53:25;;;;;;;;;;;;;;;;;;5094270;28;1771;-47
2022/10/19 11:56:11;;;;;;;;;;;;;;;;;;5093737;28;1886;-45
2022/10/19 11:58:41;;;;;;;;;;;;;;;;;;5094035;28;1885;-48
2022/10/19 12:01:11;;;;;;;;;;;;;;;;;;5093997;28;1994;-48
2022/10/19 12:03:42;;;;;;;;;;;;;;;;;;5093769;28;1683;-49
2022/10/19 12:06:12;;;;;;;;;;;;;;;;;;5093768;28;2034;-48
2022/10/19 12:08:52;;;;;;;;;;;;;;;;;;5093967;28;1954;-50
2022/10/19 12:11:48;;;;;;;;;;;;;;;;;;5092327;28;1966;-48
2022/10/19 12:14:17;;;;;;;;;;;;;;;;;;5093844;28;1782;-51
2022/10/19 12:16:48;;;;;;;;;;;;;;;;;;5093521;28;1913;-50
2022/10/19 12:19:39;;;;;;;;;;;;;;;;;;5093514;28;1829;-52
2022/10/19 12:22:11;;;;;;;;;;;;;;;;;;5090415;28;1555;-48
2022/10/19 12:24:39;;;;;;;;;;;;;;;;;;5093218;28;2131;-47
2022/10/19 12:27:09;;;;;;;;;;;;;;;;;;5093309;28;1817;-49
2022/10/19 12:29:39;;;;;;;;;;;;;;;;;;5093463;28;2077;-49
2022/10/19 12:32:08;;;;;;;;;;;;;;;;;;5093731;28;2022;-45
2022/10/19 12:34:47;;;;;;;;;;;;;;;;;;5093341;28;2047;-51
2022/10/19 12:37:22;;;;;;;;;;;;;;;;;;5093138;28;1966;-47
2022/10/19 12:39:57;;;;;;;;;;;;;;;;;;5093326;28;1851;-52
2022/10/19 12:42:24;;;;;;;;;;;;;;;;;;5092963;28;1826;-49
2022/10/19 12:44:51;;;;;;;;;;;;;;;;;;5092987;28;1780;-41
2022/10/19 12:47:22;;;;;;;;;;;;;;;;;;5093296;28;2221;-49
2022/10/19 12:49:50;;;;;;;;;;;;;;;;;;5092908;28;2158;-54
2022/10/19 12:52:35;;;;;;;;;;;;;;;;;;5093135;28;1839;-53
2022/10/19 12:55:15;;;;;;;;;;;;;;;;;;5092919;28;2410;-48
2022/10/19 12:57:46;;;;;;;;;;;;;;;;;;5092942;28;2117;-49
2022/10/19 13:00:21;;;;;;;;;;;;;;;;;;5092650;28;1595;-46
2022/10/19 13:03:08;;;;;;;;;;;;;;;;;;5092401;28;1993;-50
2022/10/19 13:05:36;;;;;;;;;;;;;;;;;;5088964;28;1913;-52
2022/10/19 13:08:04;;;;;;;;;;;;;;;;;;5093107;28;1939;-49
2022/10/19 13:10:33;;;;;;;;;;;;;;;;;;5092722;28;1855;-45
2022/10/19 13:13:01;;;;;;;;;;;;;;;;;;5092621;28;1636;-44
2022/10/19 13:15:34;;;;;;;;;;;;;;;;;;5092447;28;1824;-49
2022/10/19 13:18:12;;;;;;;;;;;;;;;;;;5092551;28;1910;-51
2022/10/19 13:20:39;;;;;;;;;;;;;;;;;;5092475;28;2083;-49
2022/10/19 13:23:11;;;;;;;;;;;;;;;;;;5092028;28;1809;-50
2022/10/19 13:25:39;;;;;;;;;;;;;;;;;;5092334;28;1773;-45
2022/10/19 13:28:06;;;;;;;;;;;;;;;;;;5092431;28;2140;-48
2022/10/19 13:30:45;;;;;;;;;;;;;;;;;;5092279;28;1817;-48
2022/10/19 13:33:24;;;;;;;;;;;;;;;;;;5098032;28;1714;-53
2022/10/19 13:35:57;;;;;;;;;;;;;;;;;;5112815;28;2001;-49
2022/10/19 13:38:31;;;;;;;;;;;;;;;;;;5112599;28;2212;-47
2022/10/19 13:41:17;;;;;;;;;;;;;;;;;;5112454;28;1940;-50
2022/10/19 13:44:11;;;;;;;;;;;;;;;;;;5112337;28;2110;-47
2022/10/19 13:46:59;;;;;;;;;;;;;;;;;;5103841;28;2041;-48
2022/10/19 13:49:44;;;;;;;;;;;;;;;;;;5112322;28;2003;-46
2022/10/19 13:52:24;;;;;;;;;;;;;;;;;;5112236;28;1956;-48
2022/10/19 13:55:13;;;;;;;;;;;;;;;;;;5112327;28;1730;-50
2022/10/19 13:57:49;;;;;;;;;;;;;;;;;;5111966;28;2137;-53
2022/10/19 14:00:22;;;;;;;;;;;;;;;;;;5112162;28;2239;-47
2022/10/19 14:03:08;;;;;;;;;;;;;;;;;;5111629;28;1728;-48
2022/10/19 14:05:55;;;;;;;;;;;;;;;;;;5112040;28;1806;-44
2022/10/19 14:08:41;;;;;;;;;;;;;;;;;;5112243;28;1696;-50
2022/10/19 14:11:20;;;;;;;;;;;;;;;;;;5111807;28;1964;-49
2022/10/19 14:14:06;;;;;;;;;;;;;;;;;;5110703;28;1830;-49
2022/10/19 14:16:34;;;;;;;;;;;;;;;;;;5111996;28;1882;-49
2022/10/19 14:19:01;;;;;;;;;;;;;;;;;;5111809;28;1999;-51
2022/10/19 14:21:33;;;;;;;;;;;;;;;;;;5111691;28;1796;-48
2022/10/19 14:24:00;;;;;;;;;;;;;;;;;;5111873;28;1926;-46
2022/10/19 14:26:29;;;;;;;;;;;;;;;;;;5112068;28;1415;-47
2022/10/19 14:28:57;;;;;;;;;;;;;;;;;;5111829;28;2112;-48
2022/10/19 14:31:30;;;;;;;;;;;;;;;;;;5112026;28;1401;-46
2022/10/19 14:34:00;;;;;;;;;;;;;;;;;;5099249;28;1911;-46
2022/10/19 14:36:31;;;;;;;;;;;;;;;;;;5090979;28;1989;-48
2022/10/19 14:38:59;;;;;;;;;;;;;;;;;;5091242;28;2142;-41
2022/10/19 14:41:26;;;;;;;;;;;;;;;;;;5091510;28;2101;-50
2022/10/19 14:43:54;;;;;;;;;;;;;;;;;;5091572;28;2034;-48
2022/10/19 14:46:30;;;;;;;;;;;;;;;;;;5091282;28;2068;-50
2022/10/19 14:49:02;;;;;;;;;;;;;;;;;;5091199;28;1242;-48
2022/10/19 14:51:32;;;;;;;;;;;;;;;;;;5091235;28;1805;-41
2022/10/19 14:54:02;;;;;;;;;;;;;;;;;;5091279;28;1382;-49
2022/10/19 14:56:37;;;;;;;;;;;;;;;;;;5091681;28;1915;-41
2022/10/19 14:59:19;;;;;;;;;;;;;;;;;;5073106;28;1475;-52
2022/10/19 15:01:49;;;;;;;;;;;;;;;;;;5091035;28;2021;-49
2022/10/19 15:04:19;;;;;;;;;;;;;;;;;;5091058;28;1793;-46
2022/10/19 15:06:48;;;;;;;;;;;;;;;;;;5090958;28;2156;-46
2022/10/19 15:09:23;;;;;;;;;;;;;;;;;;5091031;28;1502;-51
2022/10/19 15:12:05;;;;;;;;;;;;;;;;;;5091030;28;2105;-50
2022/10/19 15:14:32;;;;;;;;;;;;;;;;;;5090948;28;1684;-46
2022/10/19 15:17:00;;;;;;;;;;;;;;;;;;5091031;28;2032;-48
2022/10/19 15:19:30;;;;;;;;;;;;;;;;;;5091198;28;1917;-49
2022/10/19 15:22:12;;;;;;;;;;;;;;;;;;5089537;28;2165;-45
2022/10/19 15:24:58;;;;;;;;;;;;;;;;;;5090747;28;1853;-47
2022/10/19 15:27:44;;;;;;;;;;;;;;;;;;5090901;28;1765;-47
2022/10/19 15:30:17;;;;;;;;;;;;;;;;;;5090537;28;1594;-46
2022/10/19 15:32:45;;;;;;;;;;;;;;;;;;5090733;28;1740;-47
2022/10/19 15:35:27;;;;;;;;;;;;;;;;;;5090751;28;1830;-48
2022/10/19 15:38:02;;;;;;;;;;;;;;;;;;5090511;28;1905;-48
2022/10/19 15:40:34;;;;;;;;;;;;;;;;;;5090875;28;1918;-48
2022/10/19 15:43:21;;;;;;;;;;;;;;;;;;5090813;28;1633;-51
2022/10/19 15:45:58;;;;;;;;;;;;;;;;;;5091303;28;1848;-43
2022/10/19 15:48:45;;;;;;;;;;;;;;;;;;5094243;28;2010;-46
2022/10/19 15:51:36;;;;;;;;;;;;;;;;;;5093955;28;1703;-47
2022/10/19 15:54:04;;;;;;;;;;;;;;;;;;5094053;28;1694;-51
2022/10/19 15:56:33;;;;;;;;;;;;;;;;;;5101252;28;2103;-49
2022/10/19 15:59:01;;;;;;;;;;;;;;;;;;5114641;28;1913;-43
2022/10/19 16:01:29;;;;;;;;;;;;;;;;;;5114329;28;1643;-49
2022/10/19 16:03:57;;;;;;;;;;;;;;;;;;5114160;28;2032;-47
2022/10/19 16:06:28;;;;;;;;;;;;;;;;;;5114337;28;2223;-49
2022/10/19 16:08:57;;;;;;;;;;;;;;;;;;5114806;28;1347;-47
2022/10/19 16:11:24;;;;;;;;;;;;;;;;;;5114082;28;2060;-50
2022/10/19 16:13:53;;;;;;;;;;;;;;;;;;5114326;28;1382;-43
2022/10/19 16:16:23;;;;;;;;;;;;;;;;;;5114117;28;1696;-51
2022/10/19 16:18:51;;;;;;;;;;;;;;;;;;5114185;28;2003;-48
2022/10/19 16:21:18;;;;;;;;;;;;;;;;;;5114084;28;2312;-50
2022/10/19 16:24:03;;;;;;;;;;;;;;;;;;5114098;28;1967;-42
2022/10/19 16:26:51;;;;;;;;;;;;;;;;;;5113558;28;1860;-51
2022/10/19 16:29:31;;;;;;;;;;;;;;;;;;5113698;28;1792;-46
2022/10/19 16:32:42;;;;;;;;;;;;;;;;;;5113603;28;1852;-49
2022/10/19 16:35:30;;;;;;;;;;;;;;;;;;5093210;28;1908;-51
2022/10/19 16:38:24;;;;;;;;;;;;;;;;;;5093266;28;2049;-50
2022/10/19 16:41:11;;;;;;;;;;;;;;;;;;5093289;28;1597;-42
2022/10/19 16:43:58;;;;;;;;;;;;;;;;;;5092983;28;1766;-49
2022/10/19 16:46:26;;;;;;;;;;;;;;;;;;5092820;28;1927;-46
2022/10/19 16:48:53;;;;;;;;;;;;;;;;;;5093739;28;1868;-47
2022/10/19 16:51:20;;;;;;;;;;;;;;;;;;5091536;28;2452;-39
2022/10/19 16:53:48;;;;;;;;;;;;;;;;;;5092933;28;1978;-51
2022/10/19 16:56:16;;;;;;;;;;;;;;;;;;5093061;28;1714;-47
2022/10/19 16:58:43;;;;;;;;;;;;;;;;;;5091101;28;2198;-51
2022/10/19 17:01:11;;;;;;;;;;;;;;;;;;5092979;28;1848;-52
2022/10/19 17:03:38;;;;;;;;;;;;;;;;;;5092730;28;1312;-46
2022/10/19 17:06:06;;;;;;;;;;;;;;;;;;5092748;28;1894;-49
2022/10/19 17:08:34;;;;;;;;;;;;;;;;;;5093176;28;1803;-46
2022/10/19 17:11:29;;;;;;;;;;;;;;;;;;5092656;28;1756;-48
2022/10/19 17:13:59;;;;;;;;;;;;;;;;;;5092702;28;1484;-46
2022/10/19 17:16:29;;;;;;;;;;;;;;;;;;5092514;28;2000;-44
2022/10/19 17:18:57;;;;;;;;;;;;;;;;;;5091137;28;2151;-49
2022/10/19 17:21:26;;;;;;;;;;;;;;;;;;5092718;28;1927;-52
2022/10/19 17:23:54;;;;;;;;;;;;;;;;;;5092511;28;1920;-43
2022/10/19 17:26:28;;;;;;;;;;;;;;;;;;5092390;28;2305;-46
2022/10/19 17:28:55;;;;;;;;;;;;;;;;;;5092611;28;1843;-51
2022/10/19 17:31:23;;;;;;;;;;;;;;;;;;5092140;28;2153;-45
2022/10/19 17:33:50;;;;;;;;;;;;;;;;;;5103554;28;1971;-53
2022/10/19 17:36:19;;;;;;;;;;;;;;;;;;5112643;28;2339;-53